This is the latest recevied weather packets stored in our database for station/object E23XBQ-1. If no packets are shown the sender has not sent any weather packets the latest 10 day(s).
| Time | Temp. | Humidity | Pressure | Rain* | Wind** | Luminosity | Snow |
|---|---|---|---|---|---|---|---|
| 1778026670 | 28.89° C | 78% | 973 hPa | - | - | 0 W/m² | - |
| 1778026046 | 27.78° C | 81% | 973 hPa | - | - | 0 W/m² | - |
| 1778025422 | 27.78° C | 82% | 973 hPa | - | - | 0 W/m² | - |
| 1778024797 | 26.67° C | 90% | 972 hPa | - | - | 0 W/m² | - |
| 1778024173 | 27.22° C | 89% | 972 hPa | - | - | 0 W/m² | - |
| 1778023549 | 26.11° C | 96% | 972 hPa | - | - | 0 W/m² | - |
| 1778022923 | 25.56° C | 99% | 972 hPa | - | - | 0 W/m² | - |
| 1778022299 | 25.56° C | 99% | 972 hPa | - | - | 0 W/m² | - |
| 1778021673 | 25° C | 99% | 972 hPa | - | - | 0 W/m² | - |
| 1778021037 | 25° C | 99% | 972 hPa | - | - | 0 W/m² | - |
| 1778020413 | 25.56° C | 99% | 971 hPa | - | - | 0 W/m² | - |
| 1778019788 | 25.56° C | 96% | 971 hPa | - | - | 0 W/m² | - |
| 1778019164 | 25° C | 99% | 971 hPa | - | - | 0 W/m² | - |
| 1778018539 | 25.56° C | 99% | 971 hPa | - | - | 0 W/m² | - |
| 1778017914 | 25.56° C | 99% | 971 hPa | - | - | 0 W/m² | - |
| 1778017290 | 25° C | 99% | 971 hPa | - | - | 0 W/m² | - |
| 1778016665 | 25.56° C | 99% | 971 hPa | - | - | 0 W/m² | - |
| 1778016041 | 25.56° C | 99% | 971 hPa | - | - | 0 W/m² | - |
| 1778015416 | 25.56° C | 99% | 971 hPa | - | - | 0 W/m² | - |
| 1778014792 | 25.56° C | 99% | 971 hPa | - | - | 0 W/m² | - |
| 1778014167 | 25.56° C | 99% | 971 hPa | - | - | 0 W/m² | - |
| 1778013542 | 25.56° C | 99% | 971 hPa | - | - | 0 W/m² | - |
| 1778012918 | 25.56° C | 99% | 971 hPa | - | - | 0 W/m² | - |
| 1778012293 | 25.56° C | 99% | 971 hPa | - | - | 0 W/m² | - |
| 1778011669 | 25.56° C | 96% | 971 hPa | - | - | 0 W/m² | - |
* Rain since midnight (hover to see other rain measurements)
** Current wind speed in m/s (hover to see current wind gust speed)